aviador You're here:

KQD3 Decoded Metar

in
Report Time2017-05-26 10:59:00
UTC Time2017-05-26 11:16:46
Flight Rules vfr VFR
Wind080° at 12 Gusting to 17 kt
W.Rank080° ranks 7
Current wind is above 080° avg. (5.2)
Visibility9000 m
Phenomena:Haze
Clouds:Few 030 Hf
Expected CloudBase > 4,000 ft AGL from Temp-Dew spread
CeilingNone
Temp36°C
Dew Point26°C (56% RH)
Heat Index46.0°C
QNH1004 hPa
Raw Report
METAR KQD3 261059Z 08012G17KT 9000 HZ FEW030 36/26 A2965 RMK LTG DSNT
SW SLP038 WND DATA ESTMD T03600264=

Extra information for KQD3:More info

Social comments